createdAt,value
2022-10-06T00:00:22.433Z,99156.66
2022-10-06T00:02:51.478Z,99151.38
2022-10-06T00:05:20.567Z,99151.63
2022-10-06T00:07:50.093Z,99151.44
2022-10-06T00:10:19.565Z,99149.81
2022-10-06T00:12:52.904Z,99149.00
2022-10-06T00:15:26.212Z,99160.31
2022-10-06T00:17:56.213Z,99159.09
2022-10-06T00:20:26.093Z,99154.63
2022-10-06T00:22:56.409Z,99144.91
2022-10-06T00:25:28.251Z,99141.28
2022-10-06T00:27:58.929Z,99144.06
2022-10-06T00:30:31.265Z,99147.97
2022-10-06T00:33:03.148Z,99147.97
2022-10-06T00:35:35.669Z,99140.00
2022-10-06T00:38:06.240Z,99137.22
2022-10-06T00:40:35.441Z,99133.69
2022-10-06T00:43:07.606Z,99138.63
2022-10-06T00:45:43.812Z,99135.47
2022-10-06T00:48:20.060Z,99121.78
2022-10-06T00:50:49.761Z,99129.00
2022-10-06T00:53:18.949Z,99122.84
2022-10-06T00:55:48.388Z,99129.53
2022-10-06T00:58:19.548Z,99127.78
2022-10-06T01:00:50.613Z,99129.19
2022-10-06T01:03:25.651Z,99126.06
2022-10-06T01:05:55.895Z,99130.16
2022-10-06T01:08:26.068Z,99143.78
2022-10-06T01:10:55.448Z,99132.53
2022-10-06T01:13:27.665Z,99141.34
2022-10-06T01:16:03.625Z,99146.34
2022-10-06T01:18:34.408Z,99141.75
2022-10-06T01:21:11.982Z,99150.41
2022-10-06T01:23:42.548Z,99144.34
2022-10-06T01:26:14.601Z,99143.00
2022-10-06T01:28:43.716Z,99153.72
2022-10-06T01:31:12.999Z,99155.56
2022-10-06T01:33:44.736Z,99149.59
2022-10-06T01:36:14.652Z,99161.00
2022-10-06T01:38:46.106Z,99159.50
2022-10-06T01:41:15.412Z,99161.34
2022-10-06T01:43:44.513Z,99154.84
2022-10-06T01:46:13.643Z,99158.91
2022-10-06T01:48:43.433Z,99160.88
2022-10-06T01:51:17.101Z,99156.50
2022-10-06T01:53:47.555Z,99158.00
2022-10-06T01:56:16.630Z,99155.78
2022-10-06T01:58:45.770Z,99154.06
2022-10-06T02:01:14.999Z,99155.31
2022-10-06T02:03:44.282Z,99153.63
2022-10-06T02:06:13.316Z,99145.53
2022-10-06T02:08:44.872Z,99139.88
2022-10-06T02:11:15.769Z,99140.59
2022-10-06T02:13:45.684Z,99145.44
2022-10-06T02:16:14.938Z,99155.06
2022-10-06T02:18:45.464Z,99141.13
2022-10-06T02:21:19.690Z,99142.31
2022-10-06T02:23:48.935Z,99142.94
2022-10-06T02:26:20.074Z,99139.28
2022-10-06T02:28:51.408Z,99142.56
2022-10-06T02:31:24.095Z,99141.75
2022-10-06T02:33:54.133Z,99145.59
2022-10-06T02:36:25.226Z,99147.88
2022-10-06T02:38:54.565Z,99150.81
2022-10-06T02:41:25.456Z,99149.56
2022-10-06T02:43:55.260Z,99155.09
2022-10-06T02:46:25.192Z,99160.25
2022-10-06T02:48:54.879Z,99153.47
2022-10-06T02:51:25.179Z,99157.22
2022-10-06T02:53:54.563Z,99165.66
2022-10-06T02:56:27.165Z,99167.03
2022-10-06T02:58:56.567Z,99176.59
2022-10-06T03:01:32.408Z,99174.72
2022-10-06T03:04:08.305Z,99175.31
2022-10-06T03:06:37.404Z,99174.50
2022-10-06T03:09:19.377Z,99177.69
2022-10-06T03:11:49.912Z,99185.78
2022-10-06T03:14:26.740Z,99179.44
2022-10-06T03:16:57.352Z,99187.19
2022-10-06T03:19:28.972Z,99189.28
2022-10-06T03:21:58.019Z,99190.19
2022-10-06T03:24:35.659Z,99202.25
2022-10-06T03:27:06.282Z,99196.56
2022-10-06T03:29:35.561Z,99205.97
2022-10-06T03:32:06.103Z,99193.84
2022-10-06T03:34:36.065Z,99190.75
2022-10-06T03:37:07.783Z,99195.91
2022-10-06T03:39:36.840Z,99184.91
2022-10-06T03:42:07.390Z,99194.47
2022-10-06T03:44:36.991Z,99196.38
2022-10-06T03:47:07.131Z,99202.63
2022-10-06T03:49:36.680Z,99199.78
2022-10-06T03:52:05.705Z,99206.19
2022-10-06T03:54:38.722Z,99206.19
2022-10-06T03:57:09.429Z,99210.16
2022-10-06T03:59:39.586Z,99213.16
2022-10-06T04:02:09.140Z,99213.38
2022-10-06T04:04:39.756Z,99209.28
2022-10-06T04:07:13.128Z,99208.44
2022-10-06T04:09:42.648Z,99213.81
2022-10-06T04:12:14.935Z,99214.56
2022-10-06T04:14:46.818Z,99213.16
2022-10-06T04:17:16.049Z,99213.38
2022-10-06T04:19:45.745Z,99216.81
2022-10-06T04:22:15.646Z,99227.69
2022-10-06T04:24:44.869Z,99226.13
2022-10-06T04:27:30.741Z,99224.53
2022-10-06T04:30:13.219Z,99230.13
2022-10-06T04:32:43.154Z,99232.16
2022-10-06T04:35:12.996Z,99230.00
2022-10-06T04:37:42.139Z,99233.00
2022-10-06T04:40:12.205Z,99227.34
2022-10-06T04:42:43.100Z,99225.94
2022-10-06T04:45:15.949Z,99240.56
2022-10-06T04:47:45.967Z,99243.06
2022-10-06T04:50:15.203Z,99236.75
2022-10-06T04:53:04.139Z,99236.59
2022-10-06T04:55:33.814Z,99239.75
2022-10-06T04:58:04.381Z,99239.56
2022-10-06T05:00:33.513Z,99238.41
2022-10-06T05:03:03.218Z,99236.00
2022-10-06T05:05:32.561Z,99237.78
2022-10-06T05:08:01.688Z,99243.38
2022-10-06T05:10:30.873Z,99238.59
2022-10-06T05:13:00.094Z,99239.41
2022-10-06T05:15:31.677Z,99244.25
2022-10-06T05:18:00.809Z,99251.03
2022-10-06T05:20:29.862Z,99254.38
2022-10-06T05:22:58.958Z,99255.13
2022-10-06T05:25:28.094Z,99258.88
2022-10-06T05:27:57.408Z,99255.69
2022-10-06T05:30:26.630Z,99254.81
2022-10-06T05:32:57.105Z,99264.53
2022-10-06T05:35:27.019Z,99270.94
2022-10-06T05:37:56.104Z,99273.56
2022-10-06T05:40:25.268Z,99275.72
2022-10-06T05:42:56.809Z,99276.59
2022-10-06T05:45:26.102Z,99274.25
2022-10-06T05:47:57.079Z,99282.19
2022-10-06T05:50:26.097Z,99287.34
2022-10-06T05:52:56.532Z,99286.34
2022-10-06T05:55:26.362Z,99296.13
2022-10-06T05:57:56.265Z,99301.72
2022-10-06T06:00:25.677Z,99309.00
2022-10-06T06:02:56.162Z,99308.34
2022-10-06T06:05:25.336Z,99307.44
2022-10-06T06:07:54.379Z,99312.41
2022-10-06T06:10:23.464Z,99316.88
2022-10-06T06:12:52.497Z,99321.13
2022-10-06T06:15:57.608Z,99328.00
2022-10-06T06:18:28.664Z,99329.06
2022-10-06T06:20:59.421Z,99338.06
2022-10-06T06:23:33.564Z,99340.44
2022-10-06T06:26:06.466Z,99349.25
2022-10-06T06:28:40.362Z,99347.22
2022-10-06T06:31:15.101Z,99350.47
2022-10-06T06:33:53.097Z,99351.34
2022-10-06T06:36:26.344Z,99352.09
2022-10-06T06:38:57.823Z,99355.63
2022-10-06T06:41:29.834Z,99354.00
2022-10-06T06:44:08.317Z,99360.38
2022-10-06T06:46:43.107Z,99369.50
2022-10-06T06:49:19.074Z,99368.88
2022-10-06T06:51:54.329Z,99376.72
2022-10-06T06:54:27.726Z,99377.59
2022-10-06T06:57:03.007Z,99382.75
2022-10-06T06:59:34.113Z,99382.16
2022-10-06T07:02:03.543Z,99388.09
2022-10-06T07:04:37.422Z,99394.06
2022-10-06T07:07:08.292Z,99389.06
2022-10-06T07:09:39.298Z,99392.94
2022-10-06T07:12:15.469Z,99389.84
2022-10-06T07:15:09.850Z,99381.13
2022-10-06T07:18:00.033Z,99391.75
2022-10-06T07:20:49.426Z,99396.28
2022-10-06T07:23:39.704Z,99401.59
2022-10-06T07:26:13.719Z,99404.06
2022-10-06T07:28:43.113Z,99401.66
2022-10-06T07:31:13.727Z,99406.91
2022-10-06T07:33:42.882Z,99405.69
2022-10-06T07:36:15.473Z,99414.56
2022-10-06T07:38:47.840Z,99403.31
2022-10-06T07:41:19.720Z,99411.78
2022-10-06T07:43:56.081Z,99418.22
2022-10-06T07:46:26.745Z,99418.59
2022-10-06T07:49:03.777Z,99431.44
2022-10-06T07:51:34.801Z,99430.63
2022-10-06T07:54:05.312Z,99436.22
2022-10-06T07:56:52.917Z,99447.09
2022-10-06T07:59:22.630Z,99439.41
2022-10-06T08:01:52.933Z,99445.81
2022-10-06T08:04:21.972Z,99452.63
2022-10-06T08:06:52.381Z,99452.19
2022-10-06T08:09:22.219Z,99449.78
2022-10-06T08:11:51.306Z,99451.38
2022-10-06T08:14:20.398Z,99461.88
2022-10-06T08:16:49.454Z,99460.66
2022-10-06T08:19:19.690Z,99461.88
2022-10-06T08:21:48.729Z,99468.34
2022-10-06T08:24:19.730Z,99468.31
2022-10-06T08:26:48.737Z,99461.44
2022-10-06T08:29:17.768Z,99469.38
2022-10-06T08:31:46.844Z,99465.66
2022-10-06T08:34:15.975Z,99467.63
2022-10-06T08:37:02.115Z,99484.91
2022-10-06T08:39:35.373Z,99483.91
2022-10-06T08:42:04.655Z,99482.88
2022-10-06T08:44:39.964Z,99483.09
2022-10-06T08:47:18.604Z,99488.06
2022-10-06T08:49:52.174Z,99486.78
2022-10-06T08:52:46.914Z,99492.78
2022-10-06T08:55:33.962Z,99491.91
2022-10-06T08:58:22.839Z,99493.25
2022-10-06T09:00:56.930Z,99490.56
2022-10-06T09:03:31.205Z,99489.16
2022-10-06T09:06:13.439Z,99494.81
2022-10-06T09:08:53.194Z,99487.94
2022-10-06T09:11:45.378Z,99488.19
2022-10-06T09:14:21.084Z,99501.47
2022-10-06T09:16:55.395Z,99501.00
2022-10-06T09:19:35.249Z,99498.94
2022-10-06T09:22:07.888Z,99503.69
2022-10-06T09:24:46.987Z,99507.47
2022-10-06T09:27:21.879Z,99500.69
2022-10-06T09:29:52.285Z,99502.06
2022-10-06T09:32:23.797Z,99500.09
2022-10-06T09:34:55.450Z,99510.44
2022-10-06T09:37:25.150Z,99512.84
2022-10-06T09:39:55.690Z,99506.72
2022-10-06T09:42:30.122Z,99510.44
2022-10-06T09:45:02.562Z,99512.19
2022-10-06T09:47:46.016Z,99516.31
2022-10-06T09:50:23.003Z,99515.63
2022-10-06T09:53:18.584Z,99506.53
2022-10-06T09:55:54.934Z,99505.66
2022-10-06T09:58:34.681Z,99506.16
2022-10-06T10:01:07.917Z,99511.81
2022-10-06T10:04:15.655Z,99508.75
2022-10-06T10:06:41.813Z,99505.69
2022-10-06T10:09:27.283Z,99509.91
2022-10-06T10:12:28.307Z,99510.00
2022-10-06T10:15:04.129Z,99510.94
2022-10-06T10:17:49.368Z,99510.13
2022-10-06T10:20:34.056Z,99513.22
2022-10-06T10:23:22.863Z,99512.97
2022-10-06T10:26:27.444Z,99511.63
2022-10-06T10:29:17.050Z,99516.50
2022-10-06T10:32:12.236Z,99518.41
2022-10-06T10:35:11.741Z,99517.00
2022-10-06T10:37:46.753Z,99508.22
2022-10-06T10:40:31.331Z,99513.56
2022-10-06T10:43:10.662Z,99512.72
2022-10-06T10:45:47.269Z,99513.91
2022-10-06T10:48:24.389Z,99515.56
2022-10-06T10:51:02.933Z,99512.31
2022-10-06T10:53:42.863Z,99510.25
2022-10-06T10:56:16.219Z,99518.06
2022-10-06T10:58:48.861Z,99515.28
2022-10-06T11:01:31.127Z,99513.44
2022-10-06T11:04:02.570Z,99513.56
2022-10-06T11:06:55.432Z,99519.63
2022-10-06T11:09:32.317Z,99520.63
2022-10-06T11:12:18.597Z,99516.16
2022-10-06T11:14:57.406Z,99514.97
2022-10-06T11:17:45.292Z,99510.88
2022-10-06T11:20:40.285Z,99510.84
2022-10-06T11:23:33.750Z,99508.88
2022-10-06T11:26:15.172Z,99513.72
2022-10-06T11:28:51.826Z,99505.31
2022-10-06T11:31:30.991Z,99501.06
2022-10-06T11:34:03.285Z,99504.75
2022-10-06T11:36:50.215Z,99508.00
2022-10-06T11:39:33.278Z,99504.88
2022-10-06T11:42:15.435Z,99505.91
2022-10-06T11:44:51.806Z,99507.84
2022-10-06T11:47:35.006Z,99510.06
2022-10-06T11:50:42.773Z,99511.03
2022-10-06T11:53:28.911Z,99503.69
2022-10-06T11:56:47.069Z,99498.28
2022-10-06T11:59:34.201Z,99504.97
2022-10-06T12:02:42.625Z,99499.22
2022-10-06T12:08:37.000Z,99488.25
2022-10-06T12:11:49.418Z,99493.00
2022-10-06T12:17:37.390Z,99489.03
2022-10-06T12:20:20.227Z,99483.44
2022-10-06T12:22:56.828Z,99487.28
2022-10-06T12:25:41.048Z,99492.34
2022-10-06T12:28:37.600Z,99483.97
2022-10-06T12:31:39.868Z,99489.72
2022-10-06T12:34:58.148Z,99493.78
2022-10-06T12:37:42.598Z,99496.13
2022-10-06T12:40:57.820Z,99498.25
2022-10-06T12:44:03.917Z,99489.72
2022-10-06T12:46:51.069Z,99492.16
2022-10-06T12:49:44.292Z,99485.34
2022-10-06T12:52:44.596Z,99493.00
2022-10-06T12:55:43.586Z,99483.69
2022-10-06T12:58:29.893Z,99485.56
2022-10-06T13:01:02.459Z,99481.06
2022-10-06T13:03:32.291Z,99477.84
2022-10-06T13:06:04.872Z,99474.63
2022-10-06T13:08:36.708Z,99476.75
2022-10-06T13:11:21.885Z,99463.13
2022-10-06T13:13:54.384Z,99468.28
2022-10-06T13:16:26.381Z,99470.97
2022-10-06T13:18:58.921Z,99479.53
2022-10-06T13:21:30.124Z,99481.09
2022-10-06T13:23:59.378Z,99480.00
2022-10-06T13:26:32.737Z,99476.75
2022-10-06T13:29:03.168Z,99482.81
2022-10-06T13:31:35.228Z,99485.00
2022-10-06T13:34:07.981Z,99477.41
2022-10-06T13:36:39.981Z,99480.53
2022-10-06T13:39:15.359Z,99491.28
2022-10-06T13:41:47.620Z,99495.97
2022-10-06T13:44:36.097Z,99504.31
2022-10-06T13:47:15.373Z,99500.00
2022-10-06T13:49:53.199Z,99499.59
2022-10-06T13:52:31.511Z,99491.44
2022-10-06T13:55:02.116Z,99504.13
2022-10-06T13:57:43.461Z,99492.16
2022-10-06T14:00:25.470Z,99503.75
2022-10-06T14:02:58.903Z,99508.34
2022-10-06T14:05:32.823Z,99509.09
2022-10-06T14:08:04.093Z,99509.72
2022-10-06T14:10:53.429Z,99508.75
2022-10-06T14:13:26.550Z,99512.63
2022-10-06T14:16:01.686Z,99508.19
2022-10-06T14:18:38.288Z,99495.81
2022-10-06T14:21:28.874Z,99497.72
2022-10-06T14:23:58.330Z,99499.22
2022-10-06T14:26:30.240Z,99501.81
2022-10-06T14:29:02.405Z,99491.69
2022-10-06T14:31:34.197Z,99490.47
2022-10-06T14:34:04.685Z,99495.06
2022-10-06T14:36:36.901Z,99501.53
2022-10-06T14:39:07.811Z,99502.38
2022-10-06T14:41:36.908Z,99505.84
2022-10-06T14:44:09.663Z,99499.63
2022-10-06T14:46:42.334Z,99504.00
2022-10-06T14:49:14.240Z,99505.59
2022-10-06T14:51:47.470Z,99498.47
2022-10-06T14:54:16.806Z,99503.41
2022-10-06T14:56:45.852Z,99497.81
2022-10-06T14:59:18.221Z,99498.13
2022-10-06T15:01:49.964Z,99496.53
2022-10-06T15:04:20.945Z,99493.28
2022-10-06T15:07:07.593Z,99482.41
2022-10-06T15:09:36.865Z,99478.50
2022-10-06T15:12:06.293Z,99487.34
2022-10-06T15:14:40.069Z,99490.53
2022-10-06T15:17:10.788Z,99480.38
2022-10-06T15:19:40.401Z,99482.50
2022-10-06T15:22:10.469Z,99481.84
2022-10-06T15:24:39.537Z,99474.63
2022-10-06T15:27:26.114Z,99475.13
2022-10-06T15:29:57.468Z,99472.81
2022-10-06T15:32:28.098Z,99474.66
2022-10-06T15:35:00.277Z,99466.50
2022-10-06T15:37:29.482Z,99473.75
2022-10-06T15:39:58.825Z,99467.47
2022-10-06T15:42:27.900Z,99463.47
2022-10-06T15:44:57.425Z,99468.44
2022-10-06T15:47:29.351Z,99464.91
2022-10-06T15:49:58.748Z,99468.66
2022-10-06T15:52:33.946Z,99474.56
2022-10-06T15:55:03.602Z,99480.06
2022-10-06T15:57:32.651Z,99480.28
2022-10-06T16:00:01.639Z,99485.13
2022-10-06T16:02:35.617Z,99481.25
2022-10-06T16:05:21.844Z,99486.25
2022-10-06T16:07:51.084Z,99491.16
2022-10-06T16:10:20.249Z,99494.00
2022-10-06T16:12:49.227Z,99498.72
2022-10-06T16:15:18.307Z,99495.63
2022-10-06T16:17:48.916Z,99500.03
2022-10-06T16:20:18.304Z,99507.97
2022-10-06T16:22:47.307Z,99503.72
2022-10-06T16:25:16.629Z,99504.59
2022-10-06T16:27:45.883Z,99504.19
2022-10-06T16:30:15.433Z,99509.88
2022-10-06T16:32:44.624Z,99511.69
2022-10-06T16:35:20.610Z,99517.53
2022-10-06T16:37:50.113Z,99521.28
2022-10-06T16:40:19.232Z,99528.66
2022-10-06T16:42:48.435Z,99539.91
2022-10-06T16:45:17.537Z,99538.47
2022-10-06T16:47:46.672Z,99531.81
2022-10-06T16:50:17.380Z,99537.41
2022-10-06T16:52:48.592Z,99539.19
2022-10-06T16:55:17.764Z,99543.28
2022-10-06T16:57:46.895Z,99545.75
2022-10-06T17:00:18.414Z,99549.97
2022-10-06T17:02:47.400Z,99545.63
2022-10-06T17:05:18.197Z,99552.31
2022-10-06T17:07:47.239Z,99551.72
2022-10-06T17:10:20.445Z,99548.56
2022-10-06T17:12:49.850Z,99551.84
2022-10-06T17:15:18.888Z,99555.53
2022-10-06T17:17:48.057Z,99549.97
2022-10-06T17:20:18.591Z,99560.47
2022-10-06T17:22:48.638Z,99561.91
2022-10-06T17:25:22.355Z,99559.50
2022-10-06T17:27:51.539Z,99569.72
2022-10-06T17:30:20.638Z,99566.97
2022-10-06T17:32:49.869Z,99572.34
2022-10-06T17:35:23.528Z,99572.00
2022-10-06T17:37:52.544Z,99573.19
2022-10-06T17:40:26.027Z,99570.94
2022-10-06T17:42:55.698Z,99579.47
2022-10-06T17:45:25.082Z,99578.50
2022-10-06T17:47:55.358Z,99580.25
2022-10-06T17:50:26.051Z,99583.31
2022-10-06T17:52:55.100Z,99586.28
2022-10-06T17:55:24.315Z,99587.06
2022-10-06T17:57:53.559Z,99590.31
2022-10-06T18:00:22.661Z,99591.88
2022-10-06T18:02:54.868Z,99588.03
2022-10-06T18:05:28.468Z,99591.59
2022-10-06T18:08:01.892Z,99586.84
2022-10-06T18:10:48.316Z,99593.38
2022-10-06T18:13:17.376Z,99600.22
2022-10-06T18:15:46.840Z,99583.75
2022-10-06T18:18:16.181Z,99588.63
2022-10-06T18:20:46.943Z,99585.81
2022-10-06T18:23:16.705Z,99586.59
2022-10-06T18:25:46.116Z,99583.88
2022-10-06T18:28:15.370Z,99592.38
2022-10-06T18:30:51.382Z,99589.97
2022-10-06T18:36:15.029Z,99597.34
2022-10-06T18:38:47.197Z,99596.53
2022-10-06T18:41:18.977Z,99602.13
2022-10-06T18:43:48.122Z,99605.75
2022-10-06T18:46:36.127Z,99602.50
2022-10-06T18:49:13.260Z,99609.22
2022-10-06T18:51:46.186Z,99608.53
2022-10-06T18:54:18.916Z,99599.44
2022-10-06T18:56:50.090Z,99599.88
2022-10-06T18:59:22.974Z,99607.94
2022-10-06T19:01:52.683Z,99607.88
2022-10-06T19:04:23.716Z,99608.34
2022-10-06T19:06:56.656Z,99610.44
2022-10-06T19:09:27.085Z,99614.47
2022-10-06T19:11:58.954Z,99620.94
2022-10-06T19:14:32.180Z,99619.69
2022-10-06T19:17:04.100Z,99621.69
2022-10-06T19:19:35.132Z,99608.00
2022-10-06T19:22:07.554Z,99611.22
2022-10-06T19:24:39.102Z,99609.66
2022-10-06T19:27:12.183Z,99611.66
2022-10-06T19:29:45.792Z,99609.25
2022-10-06T19:32:17.986Z,99620.94
2022-10-06T19:34:48.540Z,99620.16
2022-10-06T19:37:18.984Z,99614.09
2022-10-06T19:39:50.275Z,99610.50
2022-10-06T19:42:50.083Z,99612.91
2022-10-06T19:45:21.082Z,99604.88
2022-10-06T19:47:51.419Z,99608.47
2022-10-06T19:50:24.148Z,99622.97
2022-10-06T19:52:54.713Z,99617.75
2022-10-06T19:55:24.940Z,99616.97
2022-10-06T19:57:54.039Z,99624.22
2022-10-06T20:00:23.239Z,99625.00
2022-10-06T20:02:52.258Z,99614.53
2022-10-06T20:05:21.967Z,99620.56
2022-10-06T20:07:51.046Z,99611.28
2022-10-06T20:10:21.671Z,99619.34
2022-10-06T20:12:51.027Z,99622.16
2022-10-06T20:15:20.839Z,99626.19
2022-10-06T20:17:50.048Z,99619.34
2022-10-06T20:20:20.570Z,99615.31
2022-10-06T20:22:49.830Z,99622.53
2022-10-06T20:25:19.055Z,99620.09
2022-10-06T20:27:50.353Z,99613.63
2022-10-06T20:30:19.688Z,99611.25
2022-10-06T20:32:48.826Z,99620.91
2022-10-06T20:35:19.797Z,99619.69
2022-10-06T20:37:48.897Z,99616.47
2022-10-06T20:40:35.350Z,99608.78
2022-10-06T20:43:05.896Z,99611.53
2022-10-06T20:45:34.972Z,99599.84
2022-10-06T20:48:06.272Z,99596.56
2022-10-06T20:50:35.349Z,99605.47
2022-10-06T20:53:04.475Z,99605.56
2022-10-06T20:55:33.531Z,99605.19
2022-10-06T20:58:02.568Z,99600.72
2022-10-06T21:00:33.039Z,99607.16
2022-10-06T21:03:03.106Z,99603.94
2022-10-06T21:05:33.139Z,99601.91
2022-10-06T21:08:02.233Z,99611.16
2022-10-06T21:10:32.049Z,99614.22
2022-10-06T21:13:01.315Z,99606.91
2022-10-06T21:15:36.556Z,99606.94
2022-10-06T21:18:07.079Z,99620.59
2022-10-06T21:20:36.582Z,99625.97
2022-10-06T21:23:10.718Z,99617.38
2022-10-06T21:25:41.049Z,99616.06
2022-10-06T21:28:10.155Z,99614.03
2022-10-06T21:30:42.358Z,99614.06
2022-10-06T21:33:14.637Z,99609.19
2022-10-06T21:35:43.670Z,99601.59
2022-10-06T21:38:13.234Z,99601.22
2022-10-06T21:40:42.340Z,99604.41
2022-10-06T21:43:11.327Z,99602.84
2022-10-06T21:45:42.243Z,99606.09
2022-10-06T21:48:11.252Z,99598.91
2022-10-06T21:50:40.395Z,99596.13
2022-10-06T21:53:09.559Z,99590.84
2022-10-06T21:55:38.611Z,99586.06
2022-10-06T21:58:07.596Z,99581.19
2022-10-06T22:00:36.751Z,99589.19
2022-10-06T22:03:09.082Z,99581.84
2022-10-06T22:05:39.831Z,99582.56
2022-10-06T22:08:08.859Z,99578.09
2022-10-06T22:10:37.941Z,99580.91
2022-10-06T22:13:07.169Z,99588.97
2022-10-06T22:15:37.458Z,99578.59
2022-10-06T22:18:07.892Z,99583.88
2022-10-06T22:20:36.985Z,99579.41
2022-10-06T22:23:05.989Z,99580.50
2022-10-06T22:25:35.015Z,99576.00
2022-10-06T22:28:08.729Z,99571.41
2022-10-06T22:30:37.827Z,99562.50
2022-10-06T22:33:08.283Z,99572.44
2022-10-06T22:35:37.491Z,99576.81
2022-10-06T22:38:06.707Z,99572.72
2022-10-06T22:40:35.790Z,99572.38
2022-10-06T22:43:04.926Z,99574.75
2022-10-06T22:45:34.041Z,99568.44
2022-10-06T22:48:03.207Z,99577.28
2022-10-06T22:50:33.763Z,99570.06
2022-10-06T22:53:02.965Z,99576.03
2022-10-06T22:55:32.097Z,99572.38
2022-10-06T22:58:01.063Z,99574.56
2022-10-06T23:00:30.162Z,99567.34
2022-10-06T23:02:59.346Z,99570.16
2022-10-06T23:05:28.861Z,99564.06
2022-10-06T23:07:59.431Z,99563.47
2022-10-06T23:10:29.728Z,99569.06
2022-10-06T23:12:59.997Z,99554.50
2022-10-06T23:15:29.759Z,99564.88
2022-10-06T23:17:58.726Z,99559.97
2022-10-06T23:20:27.766Z,99558.22
2022-10-06T23:22:58.158Z,99560.50
2022-10-06T23:25:27.514Z,99564.97
2022-10-06T23:27:56.698Z,99556.97
2022-10-06T23:30:25.755Z,99562.22
2022-10-06T23:32:54.768Z,99552.69
2022-10-06T23:35:23.949Z,99551.59
2022-10-06T23:37:53.039Z,99555.53
2022-10-06T23:40:23.499Z,99555.00
2022-10-06T23:42:52.515Z,99556.53
2022-10-06T23:45:21.548Z,99550.16
2022-10-06T23:47:50.510Z,99560.69
2022-10-06T23:50:19.686Z,99559.22
2022-10-06T23:52:48.720Z,99563.06
2022-10-06T23:55:17.674Z,99563.88
2022-10-06T23:57:48.035Z,99555.91
